Morton, Minnesota
Current Conditions -  °F | °C
As of 8:53 AM on Thursday 23 Oct 2014 (Local Time) from KRWF Reporting Station
Clear Clear  
Wind Chill: 43°   Ceiling: Unl
Heat Index: 47°   Visibility: 7mi
Dew Point: 46°   Wind: 9mph
Humidity: 97%   Direction: 220°SW
Pressure: 30"   Gusts: NA
Location:  44.55°N, 94.98°W
Report Text: KRWF 231353Z AUTO 22008KT 7SM CLR 08/08 A3000 RMK AO2 SLP161 T00830078
Loading
Personal Weather Stations






























Interactive Weather Map
Tropical Storm Tracking
New forecast layout! Learn more

10-Day Weather Forecast

Advertisements
Track Severe Weather on mobile